sensor_id;sensor_type;location;lat;lon;timestamp;P1;durP1;ratioP1;P2;durP2;ratioP2
22268;SDS011;11303;50.772;19.670;2023-03-01T00:00:20;171.02;;;74.50;;
22268;SDS011;11303;50.772;19.670;2023-03-01T00:02:21;183.40;;;79.38;;
22268;SDS011;11303;50.772;19.670;2023-03-01T00:04:23;164.50;;;70.53;;
22268;SDS011;11303;50.772;19.670;2023-03-01T00:06:25;170.30;;;69.10;;
22268;SDS011;11303;50.772;19.670;2023-03-01T00:08:31;180.65;;;76.43;;
22268;SDS011;11303;50.772;19.670;2023-03-01T00:10:34;180.50;;;76.13;;
22268;SDS011;11303;50.772;19.670;2023-03-01T00:12:35;170.65;;;72.95;;
22268;SDS011;11303;50.772;19.670;2023-03-01T00:14:37;178.40;;;81.82;;
22268;SDS011;11303;50.772;19.670;2023-03-01T00:16:40;180.65;;;76.30;;
22268;SDS011;11303;50.772;19.670;2023-03-01T00:18:43;164.10;;;66.43;;
22268;SDS011;11303;50.772;19.670;2023-03-01T00:20:51;155.98;;;60.80;;
22268;SDS011;11303;50.772;19.670;2023-03-01T00:22:54;126.97;;;50.67;;
22268;SDS011;11303;50.772;19.670;2023-03-01T00:24:55;187.00;;;72.05;;
22268;SDS011;11303;50.772;19.670;2023-03-01T00:26:57;173.93;;;71.88;;
22268;SDS011;11303;50.772;19.670;2023-03-01T00:28:59;182.75;;;74.90;;
22268;SDS011;11303;50.772;19.670;2023-03-01T00:31:04;165.77;;;64.63;;
22268;SDS011;11303;50.772;19.670;2023-03-01T00:33:07;166.63;;;65.75;;
22268;SDS011;11303;50.772;19.670;2023-03-01T00:35:09;169.18;;;70.07;;
22268;SDS011;11303;50.772;19.670;2023-03-01T00:37:10;161.35;;;65.22;;
22268;SDS011;11303;50.772;19.670;2023-03-01T00:39:13;163.75;;;68.80;;
22268;SDS011;11303;50.772;19.670;2023-03-01T00:41:16;173.07;;;69.85;;
22268;SDS011;11303;50.772;19.670;2023-03-01T00:43:19;176.75;;;67.50;;
22268;SDS011;11303;50.772;19.670;2023-03-01T00:45:21;164.48;;;63.45;;
22268;SDS011;11303;50.772;19.670;2023-03-01T00:47:23;167.90;;;66.30;;
22268;SDS011;11303;50.772;19.670;2023-03-01T00:49:24;174.15;;;68.72;;
22268;SDS011;11303;50.772;19.670;2023-03-01T00:51:28;178.05;;;69.85;;
22268;SDS011;11303;50.772;19.670;2023-03-01T00:53:30;177.40;;;71.55;;
22268;SDS011;11303;50.772;19.670;2023-03-01T00:55:32;191.00;;;73.75;;
22268;SDS011;11303;50.772;19.670;2023-03-01T00:57:33;183.35;;;73.40;;
22268;SDS011;11303;50.772;19.670;2023-03-01T00:59:35;178.45;;;71.05;;
22268;SDS011;11303;50.772;19.670;2023-03-01T01:01:36;194.25;;;77.28;;
22268;SDS011;11303;50.772;19.670;2023-03-01T01:03:38;196.77;;;76.07;;
22268;SDS011;11303;50.772;19.670;2023-03-01T01:05:40;210.32;;;82.40;;
22268;SDS011;11303;50.772;19.670;2023-03-01T01:07:41;195.05;;;75.75;;
22268;SDS011;11303;50.772;19.670;2023-03-01T01:09:43;176.05;;;69.57;;
22268;SDS011;11303;50.772;19.670;2023-03-01T01:11:49;175.65;;;70.13;;
22268;SDS011;11303;50.772;19.670;2023-03-01T01:13:52;172.65;;;68.57;;
22268;SDS011;11303;50.772;19.670;2023-03-01T01:15:54;174.00;;;68.15;;
22268;SDS011;11303;50.772;19.670;2023-03-01T01:17:55;183.40;;;75.15;;
22268;SDS011;11303;50.772;19.670;2023-03-01T01:19:57;219.13;;;88.70;;
22268;SDS011;11303;50.772;19.670;2023-03-01T01:21:58;197.40;;;86.65;;
22268;SDS011;11303;50.772;19.670;2023-03-01T01:24:00;182.82;;;75.75;;
22268;SDS011;11303;50.772;19.670;2023-03-01T01:26:08;191.23;;;77.88;;
22268;SDS011;11303;50.772;19.670;2023-03-01T01:28:12;206.20;;;84.60;;
22268;SDS011;11303;50.772;19.670;2023-03-01T01:30:13;178.50;;;71.95;;
22268;SDS011;11303;50.772;19.670;2023-03-01T01:32:15;179.50;;;67.97;;
22268;SDS011;11303;50.772;19.670;2023-03-01T01:34:18;172.38;;;67.00;;
22268;SDS011;11303;50.772;19.670;2023-03-01T01:36:22;180.77;;;68.18;;
22268;SDS011;11303;50.772;19.670;2023-03-01T01:38:23;172.65;;;68.28;;
22268;SDS011;11303;50.772;19.670;2023-03-01T01:40:25;185.07;;;74.03;;
22268;SDS011;11303;50.772;19.670;2023-03-01T01:42:27;187.65;;;72.72;;
22268;SDS011;11303;50.772;19.670;2023-03-01T01:44:29;204.18;;;83.40;;
22268;SDS011;11303;50.772;19.670;2023-03-01T01:46:31;200.10;;;81.82;;
22268;SDS011;11303;50.772;19.670;2023-03-01T01:48:39;212.82;;;85.95;;
22268;SDS011;11303;50.772;19.670;2023-03-01T01:50:43;187.02;;;74.03;;
22268;SDS011;11303;50.772;19.670;2023-03-01T01:52:46;189.35;;;73.43;;
22268;SDS011;11303;50.772;19.670;2023-03-01T01:55:08;185.45;;;73.05;;
22268;SDS011;11303;50.772;19.670;2023-03-01T01:57:21;158.63;;;63.97;;
22268;SDS011;11303;50.772;19.670;2023-03-01T01:59:35;159.80;;;63.80;;
22268;SDS011;11303;50.772;19.670;2023-03-01T02:01:38;154.10;;;61.22;;
22268;SDS011;11303;50.772;19.670;2023-03-01T02:03:39;151.07;;;61.60;;
22268;SDS011;11303;50.772;19.670;2023-03-01T02:05:46;174.38;;;69.25;;
22268;SDS011;11303;50.772;19.670;2023-03-01T02:07:56;166.93;;;68.18;;
22268;SDS011;11303;50.772;19.670;2023-03-01T02:09:59;194.88;;;75.35;;
22268;SDS011;11303;50.772;19.670;2023-03-01T02:12:02;168.15;;;67.80;;
22268;SDS011;11303;50.772;19.670;2023-03-01T02:14:05;160.65;;;66.70;;
22268;SDS011;11303;50.772;19.670;2023-03-01T02:16:11;171.55;;;67.35;;
22268;SDS011;11303;50.772;19.670;2023-03-01T02:18:16;162.50;;;63.13;;
22268;SDS011;11303;50.772;19.670;2023-03-01T02:20:22;161.27;;;63.35;;
22268;SDS011;11303;50.772;19.670;2023-03-01T02:22:31;155.80;;;61.33;;
22268;SDS011;11303;50.772;19.670;2023-03-01T02:26:55;172.15;;;64.88;;
22268;SDS011;11303;50.772;19.670;2023-03-01T02:28:58;176.18;;;64.25;;
22268;SDS011;11303;50.772;19.670;2023-03-01T02:31:00;160.93;;;63.60;;
22268;SDS011;11303;50.772;19.670;2023-03-01T02:33:23;147.63;;;57.45;;
22268;SDS011;11303;50.772;19.670;2023-03-01T02:35:25;141.27;;;56.10;;
22268;SDS011;11303;50.772;19.670;2023-03-01T02:37:27;145.93;;;56.80;;
22268;SDS011;11303;50.772;19.670;2023-03-01T02:39:30;145.90;;;54.55;;
22268;SDS011;11303;50.772;19.670;2023-03-01T02:41:36;140.85;;;53.47;;
22268;SDS011;11303;50.772;19.670;2023-03-01T02:43:39;147.00;;;56.72;;
22268;SDS011;11303;50.772;19.670;2023-03-01T02:45:50;161.00;;;58.63;;
22268;SDS011;11303;50.772;19.670;2023-03-01T02:47:57;150.27;;;57.22;;
22268;SDS011;11303;50.772;19.670;2023-03-01T02:49:58;156.60;;;60.83;;
22268;SDS011;11303;50.772;19.670;2023-03-01T02:52:47;153.65;;;58.55;;
22268;SDS011;11303;50.772;19.670;2023-03-01T02:54:34;150.73;;;59.45;;
22268;SDS011;11303;50.772;19.670;2023-03-01T02:56:42;148.25;;;60.20;;
22268;SDS011;11303;50.772;19.670;2023-03-01T02:58:44;150.75;;;57.90;;
22268;SDS011;11303;50.772;19.670;2023-03-01T03:00:46;150.82;;;58.53;;
22268;SDS011;11303;50.772;19.670;2023-03-01T03:02:51;147.40;;;56.53;;
22268;SDS011;11303;50.772;19.670;2023-03-01T03:04:54;140.35;;;55.28;;
22268;SDS011;11303;50.772;19.670;2023-03-01T03:06:55;149.57;;;56.28;;
22268;SDS011;11303;50.772;19.670;2023-03-01T03:08:57;140.65;;;55.95;;
22268;SDS011;11303;50.772;19.670;2023-03-01T03:10:59;135.25;;;52.78;;
22268;SDS011;11303;50.772;19.670;2023-03-01T03:13:05;127.40;;;49.88;;
22268;SDS011;11303;50.772;19.670;2023-03-01T03:15:09;115.28;;;45.60;;
22268;SDS011;11303;50.772;19.670;2023-03-01T03:17:13;128.55;;;51.13;;
22268;SDS011;11303;50.772;19.670;2023-03-01T03:19:15;141.82;;;53.08;;
22268;SDS011;11303;50.772;19.670;2023-03-01T03:21:18;175.02;;;72.22;;
22268;SDS011;11303;50.772;19.670;2023-03-01T03:23:23;218.52;;;92.63;;
22268;SDS011;11303;50.772;19.670;2023-03-01T03:25:25;172.98;;;75.20;;
22268;SDS011;11303;50.772;19.670;2023-03-01T03:27:28;178.15;;;71.15;;
22268;SDS011;11303;50.772;19.670;2023-03-01T03:29:30;167.18;;;70.40;;
22268;SDS011;11303;50.772;19.670;2023-03-01T03:31:32;166.18;;;70.90;;
22268;SDS011;11303;50.772;19.670;2023-03-01T03:33:33;163.02;;;66.53;;
22268;SDS011;11303;50.772;19.670;2023-03-01T03:35:40;150.65;;;63.15;;
22268;SDS011;11303;50.772;19.670;2023-03-01T03:37:46;137.60;;;55.40;;
22268;SDS011;11303;50.772;19.670;2023-03-01T03:40:04;132.30;;;53.97;;
22268;SDS011;11303;50.772;19.670;2023-03-01T03:42:16;137.88;;;53.85;;
22268;SDS011;11303;50.772;19.670;2023-03-01T03:44:17;144.95;;;59.15;;
22268;SDS011;11303;50.772;19.670;2023-03-01T03:46:19;160.13;;;64.22;;
22268;SDS011;11303;50.772;19.670;2023-03-01T03:48:21;158.60;;;63.97;;
22268;SDS011;11303;50.772;19.670;2023-03-01T03:50:22;181.68;;;72.85;;
22268;SDS011;11303;50.772;19.670;2023-03-01T03:52:24;185.52;;;72.18;;
22268;SDS011;11303;50.772;19.670;2023-03-01T03:54:25;188.35;;;74.95;;
22268;SDS011;11303;50.772;19.670;2023-03-01T03:56:27;194.48;;;75.75;;
22268;SDS011;11303;50.772;19.670;2023-03-01T03:58:29;192.07;;;80.55;;
22268;SDS011;11303;50.772;19.670;2023-03-01T04:00:30;180.45;;;71.57;;
22268;SDS011;11303;50.772;19.670;2023-03-01T04:02:32;198.65;;;75.85;;
22268;SDS011;11303;50.772;19.670;2023-03-01T04:04:33;186.18;;;75.93;;
22268;SDS011;11303;50.772;19.670;2023-03-01T04:06:35;194.77;;;77.68;;
22268;SDS011;11303;50.772;19.670;2023-03-01T04:08:37;187.65;;;75.82;;
22268;SDS011;11303;50.772;19.670;2023-03-01T04:10:39;187.45;;;73.55;;
22268;SDS011;11303;50.772;19.670;2023-03-01T04:12:42;168.70;;;69.97;;
22268;SDS011;11303;50.772;19.670;2023-03-01T04:14:44;176.68;;;72.55;;
22268;SDS011;11303;50.772;19.670;2023-03-01T04:16:48;164.45;;;71.28;;
22268;SDS011;11303;50.772;19.670;2023-03-01T04:18:50;183.48;;;72.82;;
22268;SDS011;11303;50.772;19.670;2023-03-01T04:20:52;192.30;;;74.60;;
22268;SDS011;11303;50.772;19.670;2023-03-01T04:22:57;189.02;;;76.03;;
22268;SDS011;11303;50.772;19.670;2023-03-01T04:25:12;188.70;;;70.65;;
22268;SDS011;11303;50.772;19.670;2023-03-01T04:27:15;192.57;;;72.85;;
22268;SDS011;11303;50.772;19.670;2023-03-01T04:29:16;174.90;;;68.88;;
22268;SDS011;11303;50.772;19.670;2023-03-01T04:31:18;192.57;;;73.32;;
22268;SDS011;11303;50.772;19.670;2023-03-01T04:33:23;203.30;;;80.05;;
22268;SDS011;11303;50.772;19.670;2023-03-01T04:35:26;220.85;;;84.28;;
22268;SDS011;11303;50.772;19.670;2023-03-01T04:37:27;207.82;;;84.40;;
22268;SDS011;11303;50.772;19.670;2023-03-01T04:39:29;214.90;;;84.45;;
22268;SDS011;11303;50.772;19.670;2023-03-01T04:41:30;215.68;;;85.43;;
22268;SDS011;11303;50.772;19.670;2023-03-01T04:43:32;188.93;;;77.70;;
22268;SDS011;11303;50.772;19.670;2023-03-01T04:45:35;189.02;;;77.18;;
22268;SDS011;11303;50.772;19.670;2023-03-01T04:47:37;190.75;;;75.38;;
22268;SDS011;11303;50.772;19.670;2023-03-01T04:49:39;185.93;;;75.43;;
22268;SDS011;11303;50.772;19.670;2023-03-01T04:51:40;189.60;;;76.47;;
22268;SDS011;11303;50.772;19.670;2023-03-01T04:53:42;197.15;;;80.07;;
22268;SDS011;11303;50.772;19.670;2023-03-01T04:55:45;207.40;;;83.53;;
22268;SDS011;11303;50.772;19.670;2023-03-01T04:57:46;201.70;;;78.03;;
22268;SDS011;11303;50.772;19.670;2023-03-01T04:59:49;207.23;;;84.00;;
22268;SDS011;11303;50.772;19.670;2023-03-01T05:01:51;194.55;;;75.55;;
22268;SDS011;11303;50.772;19.670;2023-03-01T05:03:56;206.95;;;81.00;;
22268;SDS011;11303;50.772;19.670;2023-03-01T05:06:04;274.27;;;91.00;;
22268;SDS011;11303;50.772;19.670;2023-03-01T05:08:06;277.15;;;90.63;;
22268;SDS011;11303;50.772;19.670;2023-03-01T05:10:09;236.55;;;86.65;;
22268;SDS011;11303;50.772;19.670;2023-03-01T05:12:11;235.20;;;83.93;;
22268;SDS011;11303;50.772;19.670;2023-03-01T05:14:14;236.07;;;82.78;;
22268;SDS011;11303;50.772;19.670;2023-03-01T05:16:16;268.23;;;95.00;;
22268;SDS011;11303;50.772;19.670;2023-03-01T05:18:18;322.15;;;114.20;;
22268;SDS011;11303;50.772;19.670;2023-03-01T05:20:19;283.73;;;101.25;;
22268;SDS011;11303;50.772;19.670;2023-03-01T05:22:24;337.83;;;111.90;;
22268;SDS011;11303;50.772;19.670;2023-03-01T05:24:25;325.30;;;108.85;;
22268;SDS011;11303;50.772;19.670;2023-03-01T05:26:27;250.77;;;89.28;;
22268;SDS011;11303;50.772;19.670;2023-03-01T05:28:30;209.50;;;76.68;;
22268;SDS011;11303;50.772;19.670;2023-03-01T05:30:32;188.60;;;72.80;;
22268;SDS011;11303;50.772;19.670;2023-03-01T05:32:35;204.68;;;78.38;;
22268;SDS011;11303;50.772;19.670;2023-03-01T05:34:36;203.68;;;77.45;;
22268;SDS011;11303;50.772;19.670;2023-03-01T05:36:38;181.32;;;68.80;;
22268;SDS011;11303;50.772;19.670;2023-03-01T05:38:39;173.35;;;63.40;;
22268;SDS011;11303;50.772;19.670;2023-03-01T05:40:41;159.60;;;61.53;;
22268;SDS011;11303;50.772;19.670;2023-03-01T05:42:48;158.95;;;60.88;;
22268;SDS011;11303;50.772;19.670;2023-03-01T05:44:51;161.60;;;60.97;;
22268;SDS011;11303;50.772;19.670;2023-03-01T05:46:52;163.98;;;59.35;;
22268;SDS011;11303;50.772;19.670;2023-03-01T05:48:54;158.90;;;63.40;;
22268;SDS011;11303;50.772;19.670;2023-03-01T05:50:58;164.20;;;61.20;;
22268;SDS011;11303;50.772;19.670;2023-03-01T05:53:02;158.90;;;62.38;;
22268;SDS011;11303;50.772;19.670;2023-03-01T05:55:07;158.60;;;63.20;;
22268;SDS011;11303;50.772;19.670;2023-03-01T05:57:09;163.70;;;66.38;;
22268;SDS011;11303;50.772;19.670;2023-03-01T05:59:11;216.55;;;76.88;;
22268;SDS011;11303;50.772;19.670;2023-03-01T06:01:13;203.82;;;73.20;;
22268;SDS011;11303;50.772;19.670;2023-03-01T06:03:15;173.88;;;66.65;;
22268;SDS011;11303;50.772;19.670;2023-03-01T06:05:18;167.27;;;62.80;;
22268;SDS011;11303;50.772;19.670;2023-03-01T06:07:19;173.82;;;68.72;;
22268;SDS011;11303;50.772;19.670;2023-03-01T06:09:21;168.18;;;68.43;;
22268;SDS011;11303;50.772;19.670;2023-03-01T06:11:23;144.63;;;61.35;;
22268;SDS011;11303;50.772;19.670;2023-03-01T06:13:24;141.88;;;60.03;;
22268;SDS011;11303;50.772;19.670;2023-03-01T06:15:26;124.40;;;54.35;;
22268;SDS011;11303;50.772;19.670;2023-03-01T06:17:31;114.57;;;51.85;;
22268;SDS011;11303;50.772;19.670;2023-03-01T06:19:38;118.25;;;49.55;;
22268;SDS011;11303;50.772;19.670;2023-03-01T06:21:40;113.35;;;49.50;;
22268;SDS011;11303;50.772;19.670;2023-03-01T06:23:41;105.75;;;48.40;;
22268;SDS011;11303;50.772;19.670;2023-03-01T06:25:43;96.57;;;46.10;;
22268;SDS011;11303;50.772;19.670;2023-03-01T06:27:44;94.63;;;45.33;;
22268;SDS011;11303;50.772;19.670;2023-03-01T06:29:46;97.53;;;46.10;;
22268;SDS011;11303;50.772;19.670;2023-03-01T06:31:48;89.35;;;44.25;;
22268;SDS011;11303;50.772;19.670;2023-03-01T06:33:50;112.25;;;48.40;;
22268;SDS011;11303;50.772;19.670;2023-03-01T06:35:54;111.82;;;51.85;;
22268;SDS011;11303;50.772;19.670;2023-03-01T06:37:58;114.32;;;53.65;;
22268;SDS011;11303;50.772;19.670;2023-03-01T06:40:02;124.72;;;56.25;;
22268;SDS011;11303;50.772;19.670;2023-03-01T06:42:12;159.30;;;66.47;;
22268;SDS011;11303;50.772;19.670;2023-03-01T06:44:15;127.82;;;58.17;;
22268;SDS011;11303;50.772;19.670;2023-03-01T06:46:17;183.35;;;73.93;;
22268;SDS011;11303;50.772;19.670;2023-03-01T06:48:18;181.77;;;81.05;;
22268;SDS011;11303;50.772;19.670;2023-03-01T06:50:20;159.93;;;69.38;;
22268;SDS011;11303;50.772;19.670;2023-03-01T06:52:22;153.48;;;68.45;;
22268;SDS011;11303;50.772;19.670;2023-03-01T06:54:23;119.55;;;55.20;;
22268;SDS011;11303;50.772;19.670;2023-03-01T06:56:25;111.50;;;55.17;;
22268;SDS011;11303;50.772;19.670;2023-03-01T06:58:26;109.78;;;53.28;;
22268;SDS011;11303;50.772;19.670;2023-03-01T07:00:28;107.53;;;54.20;;
22268;SDS011;11303;50.772;19.670;2023-03-01T07:02:30;116.93;;;55.53;;
22268;SDS011;11303;50.772;19.670;2023-03-01T07:04:31;111.40;;;56.25;;
22268;SDS011;11303;50.772;19.670;2023-03-01T07:06:33;111.45;;;57.63;;
22268;SDS011;11303;50.772;19.670;2023-03-01T07:08:35;130.55;;;64.35;;
22268;SDS011;11303;50.772;19.670;2023-03-01T07:10:36;140.07;;;67.57;;
22268;SDS011;11303;50.772;19.670;2023-03-01T07:12:38;126.25;;;62.80;;
22268;SDS011;11303;50.772;19.670;2023-03-01T07:14:40;124.97;;;63.25;;
22268;SDS011;11303;50.772;19.670;2023-03-01T07:16:42;120.88;;;63.20;;
22268;SDS011;11303;50.772;19.670;2023-03-01T07:18:43;134.13;;;68.40;;
22268;SDS011;11303;50.772;19.670;2023-03-01T07:20:45;145.77;;;76.40;;
22268;SDS011;11303;50.772;19.670;2023-03-01T07:22:46;144.50;;;70.20;;
22268;SDS011;11303;50.772;19.670;2023-03-01T07:24:48;125.07;;;65.57;;
22268;SDS011;11303;50.772;19.670;2023-03-01T07:26:50;115.00;;;64.40;;
22268;SDS011;11303;50.772;19.670;2023-03-01T07:28:52;123.75;;;68.18;;
22268;SDS011;11303;50.772;19.670;2023-03-01T07:30:54;125.10;;;67.97;;
22268;SDS011;11303;50.772;19.670;2023-03-01T07:32:56;120.28;;;65.00;;
22268;SDS011;11303;50.772;19.670;2023-03-01T07:34:58;115.95;;;66.00;;
22268;SDS011;11303;50.772;19.670;2023-03-01T07:37:00;115.72;;;64.03;;
22268;SDS011;11303;50.772;19.670;2023-03-01T07:39:02;226.50;;;106.05;;
22268;SDS011;11303;50.772;19.670;2023-03-01T07:41:04;258.63;;;121.70;;
22268;SDS011;11303;50.772;19.670;2023-03-01T07:43:06;169.80;;;87.43;;
22268;SDS011;11303;50.772;19.670;2023-03-01T07:45:08;125.32;;;65.15;;
22268;SDS011;11303;50.772;19.670;2023-03-01T07:47:10;116.43;;;62.13;;
22268;SDS011;11303;50.772;19.670;2023-03-01T07:49:12;138.65;;;77.25;;
22268;SDS011;11303;50.772;19.670;2023-03-01T07:51:13;119.20;;;64.10;;
22268;SDS011;11303;50.772;19.670;2023-03-01T07:53:15;129.27;;;68.30;;
22268;SDS011;11303;50.772;19.670;2023-03-01T07:55:16;134.85;;;71.25;;
22268;SDS011;11303;50.772;19.670;2023-03-01T07:57:18;131.40;;;73.63;;
22268;SDS011;11303;50.772;19.670;2023-03-01T07:59:20;130.63;;;73.72;;
22268;SDS011;11303;50.772;19.670;2023-03-01T08:01:21;131.32;;;72.63;;
22268;SDS011;11303;50.772;19.670;2023-03-01T08:03:23;112.40;;;66.22;;
22268;SDS011;11303;50.772;19.670;2023-03-01T08:05:25;104.97;;;58.72;;
22268;SDS011;11303;50.772;19.670;2023-03-01T08:07:26;114.22;;;64.25;;
22268;SDS011;11303;50.772;19.670;2023-03-01T08:09:28;109.38;;;61.80;;
22268;SDS011;11303;50.772;19.670;2023-03-01T08:11:29;176.73;;;93.97;;
22268;SDS011;11303;50.772;19.670;2023-03-01T08:13:31;111.28;;;63.25;;
22268;SDS011;11303;50.772;19.670;2023-03-01T08:15:33;129.57;;;75.03;;
22268;SDS011;11303;50.772;19.670;2023-03-01T08:17:35;107.68;;;63.85;;
22268;SDS011;11303;50.772;19.670;2023-03-01T08:19:36;98.95;;;56.22;;
22268;SDS011;11303;50.772;19.670;2023-03-01T08:21:38;96.40;;;57.28;;
22268;SDS011;11303;50.772;19.670;2023-03-01T08:23:40;131.98;;;72.68;;
22268;SDS011;11303;50.772;19.670;2023-03-01T08:25:43;182.13;;;96.63;;
22268;SDS011;11303;50.772;19.670;2023-03-01T08:27:44;80.97;;;47.05;;
22268;SDS011;11303;50.772;19.670;2023-03-01T08:29:46;54.50;;;34.55;;
22268;SDS011;11303;50.772;19.670;2023-03-01T08:31:47;81.72;;;46.00;;
22268;SDS011;11303;50.772;19.670;2023-03-01T08:33:51;86.75;;;50.42;;
22268;SDS011;11303;50.772;19.670;2023-03-01T08:36:03;192.70;;;97.88;;
22268;SDS011;11303;50.772;19.670;2023-03-01T08:38:08;135.15;;;71.18;;
22268;SDS011;11303;50.772;19.670;2023-03-01T08:40:10;100.47;;;55.38;;
22268;SDS011;11303;50.772;19.670;2023-03-01T08:42:12;91.32;;;49.53;;
22268;SDS011;11303;50.772;19.670;2023-03-01T08:44:14;92.95;;;51.85;;
22268;SDS011;11303;50.772;19.670;2023-03-01T08:46:18;90.75;;;51.75;;
22268;SDS011;11303;50.772;19.670;2023-03-01T08:48:19;81.15;;;47.40;;
22268;SDS011;11303;50.772;19.670;2023-03-01T08:50:21;87.18;;;48.63;;
22268;SDS011;11303;50.772;19.670;2023-03-01T08:52:24;70.70;;;41.60;;
22268;SDS011;11303;50.772;19.670;2023-03-01T08:54:25;81.88;;;48.85;;
22268;SDS011;11303;50.772;19.670;2023-03-01T08:56:27;154.90;;;80.80;;
22268;SDS011;11303;50.772;19.670;2023-03-01T08:58:29;78.40;;;48.88;;
22268;SDS011;11303;50.772;19.670;2023-03-01T09:00:31;68.55;;;41.97;;
22268;SDS011;11303;50.772;19.670;2023-03-01T09:02:36;156.25;;;86.90;;
22268;SDS011;11303;50.772;19.670;2023-03-01T09:04:38;44.17;;;28.25;;
22268;SDS011;11303;50.772;19.670;2023-03-01T09:06:40;33.05;;;22.17;;
22268;SDS011;11303;50.772;19.670;2023-03-01T09:08:47;163.48;;;95.45;;
22268;SDS011;11303;50.772;19.670;2023-03-01T09:10:50;119.53;;;69.78;;
22268;SDS011;11303;50.772;19.670;2023-03-01T09:12:51;365.70;;;207.50;;
22268;SDS011;11303;50.772;19.670;2023-03-01T09:14:54;70.97;;;44.03;;
22268;SDS011;11303;50.772;19.670;2023-03-01T09:16:56;302.63;;;169.38;;
22268;SDS011;11303;50.772;19.670;2023-03-01T09:18:58;242.02;;;158.15;;
22268;SDS011;11303;50.772;19.670;2023-03-01T09:23:08;52.83;;;32.88;;
22268;SDS011;11303;50.772;19.670;2023-03-01T09:25:09;50.10;;;30.50;;
22268;SDS011;11303;50.772;19.670;2023-03-01T09:27:11;191.25;;;109.32;;
22268;SDS011;11303;50.772;19.670;2023-03-01T09:29:14;227.27;;;116.50;;
22268;SDS011;11303;50.772;19.670;2023-03-01T09:31:17;62.53;;;37.22;;
22268;SDS011;11303;50.772;19.670;2023-03-01T09:33:20;63.97;;;37.58;;
22268;SDS011;11303;50.772;19.670;2023-03-01T09:35:22;51.05;;;27.10;;
22268;SDS011;11303;50.772;19.670;2023-03-01T09:37:24;53.10;;;30.52;;
22268;SDS011;11303;50.772;19.670;2023-03-01T09:39:26;58.40;;;34.25;;
22268;SDS011;11303;50.772;19.670;2023-03-01T09:43:51;48.83;;;28.95;;
22268;SDS011;11303;50.772;19.670;2023-03-01T09:45:59;44.05;;;25.15;;
22268;SDS011;11303;50.772;19.670;2023-03-01T09:48:06;48.78;;;27.73;;
22268;SDS011;11303;50.772;19.670;2023-03-01T09:50:16;46.40;;;26.85;;
22268;SDS011;11303;50.772;19.670;2023-03-01T09:55:08;51.65;;;29.90;;
22268;SDS011;11303;50.772;19.670;2023-03-01T09:57:17;47.03;;;28.05;;
22268;SDS011;11303;50.772;19.670;2023-03-01T09:59:23;35.70;;;20.98;;
22268;SDS011;11303;50.772;19.670;2023-03-01T10:04:45;42.80;;;26.52;;
22268;SDS011;11303;50.772;19.670;2023-03-01T10:07:05;38.13;;;20.48;;
22268;SDS011;11303;50.772;19.670;2023-03-01T10:09:18;38.80;;;24.48;;
22268;SDS011;11303;50.772;19.670;2023-03-01T10:11:24;55.65;;;29.98;;
22268;SDS011;11303;50.772;19.670;2023-03-01T10:15:45;38.33;;;24.38;;
22268;SDS011;11303;50.772;19.670;2023-03-01T10:18:02;54.25;;;29.65;;
22268;SDS011;11303;50.772;19.670;2023-03-01T10:22:28;37.13;;;22.58;;
22268;SDS011;11303;50.772;19.670;2023-03-01T10:24:34;35.13;;;20.80;;
22268;SDS011;11303;50.772;19.670;2023-03-01T10:26:39;28.67;;;18.15;;
22268;SDS011;11303;50.772;19.670;2023-03-01T10:31:05;39.30;;;24.08;;
22268;SDS011;11303;50.772;19.670;2023-03-01T10:35:29;43.63;;;25.88;;
22268;SDS011;11303;50.772;19.670;2023-03-01T10:37:34;39.22;;;25.05;;
22268;SDS011;11303;50.772;19.670;2023-03-01T10:40:08;32.28;;;21.02;;
22268;SDS011;11303;50.772;19.670;2023-03-01T10:42:22;32.80;;;20.48;;
22268;SDS011;11303;50.772;19.670;2023-03-01T10:44:39;30.55;;;19.95;;
22268;SDS011;11303;50.772;19.670;2023-03-01T10:46:42;58.75;;;35.75;;
22268;SDS011;11303;50.772;19.670;2023-03-01T10:48:44;36.33;;;22.83;;
22268;SDS011;11303;50.772;19.670;2023-03-01T10:50:47;35.92;;;22.98;;
22268;SDS011;11303;50.772;19.670;2023-03-01T10:52:57;30.63;;;20.58;;
22268;SDS011;11303;50.772;19.670;2023-03-01T10:57:24;33.58;;;20.17;;
22268;SDS011;11303;50.772;19.670;2023-03-01T10:59:34;33.08;;;20.48;;
22268;SDS011;11303;50.772;19.670;2023-03-01T11:01:37;29.08;;;20.17;;
22268;SDS011;11303;50.772;19.670;2023-03-01T11:03:39;29.45;;;19.73;;
22268;SDS011;11303;50.772;19.670;2023-03-01T11:05:51;34.13;;;21.13;;
22268;SDS011;11303;50.772;19.670;2023-03-01T11:07:55;30.17;;;18.00;;
22268;SDS011;11303;50.772;19.670;2023-03-01T11:09:58;35.97;;;22.63;;
22268;SDS011;11303;50.772;19.670;2023-03-01T11:12:00;29.92;;;18.10;;
22268;SDS011;11303;50.772;19.670;2023-03-01T11:14:15;26.90;;;15.95;;
22268;SDS011;11303;50.772;19.670;2023-03-01T11:16:34;29.40;;;18.52;;
22268;SDS011;11303;50.772;19.670;2023-03-01T11:18:37;28.00;;;16.35;;
22268;SDS011;11303;50.772;19.670;2023-03-01T11:20:48;26.60;;;15.80;;
22268;SDS011;11303;50.772;19.670;2023-03-01T11:22:54;29.58;;;16.15;;
22268;SDS011;11303;50.772;19.670;2023-03-01T11:24:59;24.83;;;14.45;;
22268;SDS011;11303;50.772;19.670;2023-03-01T11:27:24;26.60;;;15.20;;
22268;SDS011;11303;50.772;19.670;2023-03-01T11:29:33;23.77;;;14.77;;
22268;SDS011;11303;50.772;19.670;2023-03-01T11:31:49;24.65;;;14.23;;
22268;SDS011;11303;50.772;19.670;2023-03-01T11:33:59;27.35;;;14.10;;
22268;SDS011;11303;50.772;19.670;2023-03-01T11:42:40;25.25;;;15.10;;
22268;SDS011;11303;50.772;19.670;2023-03-01T11:44:47;28.52;;;15.45;;
22268;SDS011;11303;50.772;19.670;2023-03-01T11:54:00;25.23;;;14.55;;
22268;SDS011;11303;50.772;19.670;2023-03-01T11:58:45;29.90;;;18.15;;
22268;SDS011;11303;50.772;19.670;2023-03-01T12:12:31;28.00;;;16.73;;
22268;SDS011;11303;50.772;19.670;2023-03-01T12:15:03;33.08;;;16.98;;
22268;SDS011;11303;50.772;19.670;2023-03-01T12:26:39;28.25;;;15.65;;
22268;SDS011;11303;50.772;19.670;2023-03-01T12:29:42;28.15;;;15.90;;
22268;SDS011;11303;50.772;19.670;2023-03-01T12:44:46;52.63;;;25.88;;
22268;SDS011;11303;50.772;19.670;2023-03-01T12:47:05;29.27;;;14.80;;
22268;SDS011;11303;50.772;19.670;2023-03-01T12:49:19;30.92;;;16.50;;
22268;SDS011;11303;50.772;19.670;2023-03-01T12:51:28;24.15;;;13.63;;
22268;SDS011;11303;50.772;19.670;2023-03-01T12:53:40;24.02;;;13.07;;
22268;SDS011;11303;50.772;19.670;2023-03-01T12:55:46;41.65;;;17.25;;
22268;SDS011;11303;50.772;19.670;2023-03-01T12:57:56;24.90;;;13.65;;
22268;SDS011;11303;50.772;19.670;2023-03-01T13:00:05;35.35;;;16.85;;
22268;SDS011;11303;50.772;19.670;2023-03-01T13:02:31;26.95;;;14.07;;